Time;durP1;ratioP1;P1;durP2;ratioP2;P2;SDS_P1;SDS_P2;PMS_P1;PMS_P2;Temp;Humidity;BMP_temperature;BMP_pressure;BME280_temperature;BME280_humidity;BME280_pressure;Samples;Min_cycle;Max_cycle;Signal;HPM_P1;HPM_P2
2023/12/08 00:00:19;;;;;;;31.13;17.73;;;2.10;99.90;;;;;;4972585;28;20098;-61
2023/12/08 00:02:45;;;;;;;21.80;14.80;;;2.00;99.90;;;;;;4950399;28;20027;-60
2023/12/08 00:05:10;;;;;;;26.83;15.20;;;2.10;99.90;;;;;;4946721;28;20023;-62
2023/12/08 00:07:36;;;;;;;22.05;15.55;;;2.20;99.90;;;;;;4946240;28;20080;-61
2023/12/08 00:10:02;;;;;;;23.65;15.27;;;2.20;99.90;;;;;;4936519;29;20023;-63
2023/12/08 00:12:28;;;;;;;23.02;15.07;;;2.20;99.90;;;;;;4953473;28;20027;-62
2023/12/08 00:14:54;;;;;;;27.77;16.48;;;2.30;99.90;;;;;;4953146;28;20038;-59
2023/12/08 00:17:20;;;;;;;28.00;16.55;;;2.30;99.90;;;;;;4953098;29;20035;-62
2023/12/08 00:19:45;;;;;;;23.45;15.65;;;2.30;99.90;;;;;;4952940;29;20042;-63
2023/12/08 00:22:11;;;;;;;26.00;15.32;;;2.20;99.90;;;;;;4952612;29;20030;-64
2023/12/08 00:24:36;;;;;;;23.63;16.50;;;2.20;99.90;;;;;;4971500;22;20477;-55
2023/12/08 00:27:02;;;;;;;25.92;15.80;;;2.20;99.90;;;;;;4971739;28;20154;-51
2023/12/08 00:29:27;;;;;;;25.77;16.90;;;2.20;99.90;;;;;;4972067;28;20038;-53
2023/12/08 00:31:53;;;;;;;27.55;16.38;;;2.10;99.90;;;;;;4954404;28;20035;-51
2023/12/08 00:34:18;;;;;;;24.77;16.95;;;2.20;99.90;;;;;;4971921;28;20092;-56
2023/12/08 00:36:44;;;;;;;26.80;15.73;;;2.20;99.90;;;;;;4971947;28;20062;-51
2023/12/08 00:39:09;;;;;;;29.13;15.55;;;2.20;99.90;;;;;;4954333;28;20084;-50
2023/12/08 00:41:35;;;;;;;29.30;15.60;;;2.30;99.90;;;;;;4971535;28;20031;-50
2023/12/08 00:44:01;;;;;;;24.23;15.38;;;2.30;99.90;;;;;;4970590;28;20026;-50
2023/12/08 00:46:27;;;;;;;22.20;13.85;;;2.30;99.90;;;;;;4971663;28;20102;-56
2023/12/08 00:48:52;;;;;;;26.95;15.95;;;2.30;99.90;;;;;;4971861;28;20058;-60
2023/12/08 00:51:18;;;;;;;23.35;15.20;;;2.30;99.90;;;;;;4971900;28;20022;-49
2023/12/08 00:53:43;;;;;;;30.33;16.00;;;2.20;99.90;;;;;;4972623;28;20485;-54
2023/12/08 00:56:09;;;;;;;28.23;17.13;;;2.20;99.90;;;;;;4953417;28;20122;-55
2023/12/08 00:58:36;;;;;;;26.25;16.13;;;2.30;99.90;;;;;;4952283;29;20383;-50
2023/12/08 01:01:01;;;;;;;26.65;16.52;;;2.20;99.90;;;;;;4952269;28;20015;-50
2023/12/08 01:03:27;;;;;;;27.08;15.82;;;2.20;99.90;;;;;;4962289;28;20379;-47
2023/12/08 01:05:52;;;;;;;24.58;16.00;;;2.30;99.90;;;;;;4971271;28;20053;-45
2023/12/08 01:08:18;;;;;;;22.95;14.95;;;2.40;99.90;;;;;;5036813;28;20036;-48
2023/12/08 01:10:43;;;;;;;23.30;15.70;;;2.40;99.90;;;;;;4953774;28;20042;-49
2023/12/08 01:13:09;;;;;;;27.95;16.30;;;2.50;99.90;;;;;;4952097;29;20066;-50
2023/12/08 01:15:34;;;;;;;23.38;15.98;;;2.40;99.90;;;;;;4935076;29;20395;-47
2023/12/08 01:18:00;;;;;;;24.23;16.85;;;2.40;99.90;;;;;;4952294;29;20027;-49
2023/12/08 01:20:26;;;;;;;22.48;15.00;;;2.40;99.90;;;;;;4963180;28;20026;-49
2023/12/08 01:22:51;;;;;;;25.98;15.85;;;2.40;99.90;;;;;;4953655;28;20493;-48
2023/12/08 01:25:17;;;;;;;32.83;18.63;;;2.50;99.90;;;;;;4953789;28;20059;-47
2023/12/08 01:27:42;;;;;;;24.15;15.52;;;2.40;99.90;;;;;;4953867;28;20462;-47
2023/12/08 01:30:09;;;;;;;86.40;43.75;;;2.40;99.90;;;;;;4953934;28;20035;-48
2023/12/08 01:32:34;;;;;;;62.88;30.40;;;2.40;99.90;;;;;;4970864;28;20037;-47
2023/12/08 01:35:00;;;;;;;27.90;16.95;;;2.50;99.90;;;;;;4953735;28;20358;-48
2023/12/08 01:37:25;;;;;;;28.20;16.83;;;2.50;99.90;;;;;;4953707;28;20031;-49
2023/12/08 01:39:50;;;;;;;23.63;16.52;;;2.40;99.90;;;;;;4953569;28;20385;-48
2023/12/08 01:42:16;;;;;;;26.42;15.98;;;2.30;99.90;;;;;;4970712;28;20062;-52
2023/12/08 01:44:41;;;;;;;26.65;16.50;;;2.30;99.90;;;;;;5006414;28;20385;-45
2023/12/08 01:47:07;;;;;;;31.80;16.50;;;2.20;99.90;;;;;;5034742;28;20029;-50
2023/12/08 01:49:34;;;;;;;25.58;15.75;;;2.20;99.90;;;;;;5034602;28;20032;-48
2023/12/08 01:52:00;;;;;;;27.50;16.52;;;2.20;99.90;;;;;;5034166;28;20119;-47
2023/12/08 01:54:26;;;;;;;26.05;16.95;;;2.30;99.90;;;;;;5033752;28;20542;-47
2023/12/08 01:56:52;;;;;;;27.05;16.23;;;2.30;99.90;;;;;;5034475;28;20028;-47
2023/12/08 01:59:18;;;;;;;28.50;17.55;;;2.30;99.90;;;;;;5052143;28;20186;-47
2023/12/08 02:01:43;;;;;;;29.20;16.90;;;2.30;99.90;;;;;;5034283;28;20433;-49
2023/12/08 02:04:09;;;;;;;26.60;16.98;;;2.30;99.90;;;;;;5052039;28;20416;-51
2023/12/08 02:06:35;;;;;;;26.00;17.02;;;2.40;99.90;;;;;;5052078;28;20040;-47
2023/12/08 02:09:01;;;;;;;25.27;16.38;;;2.40;99.90;;;;;;5032443;28;20024;-48
2023/12/08 02:11:27;;;;;;;26.65;16.30;;;2.40;99.90;;;;;;5033841;28;20021;-50
2023/12/08 02:13:53;;;;;;;24.65;16.02;;;2.40;99.90;;;;;;5005868;28;20486;-47
2023/12/08 02:16:39;;;;;;;27.85;16.52;;;2.40;99.90;;;;;;4934352;29;20510;-51
2023/12/08 02:19:08;;;;;;;28.17;16.15;;;2.40;99.90;;;;;;4951204;29;20031;-47
2023/12/08 02:21:34;;;;;;;32.95;18.45;;;2.40;99.90;;;;;;4933738;29;20053;-47
2023/12/08 02:23:59;;;;;;;25.23;16.35;;;2.40;99.90;;;;;;4951147;29;20379;-46
2023/12/08 02:26:25;;;;;;;22.23;15.80;;;2.40;99.90;;;;;;4951053;29;20042;-47
2023/12/08 02:28:50;;;;;;;25.80;18.10;;;2.50;99.90;;;;;;4933958;29;20035;-47
2023/12/08 02:31:27;;;;;;;24.92;16.35;;;2.50;99.90;;;;;;4952683;28;20035;-48
2023/12/08 02:33:54;;;;;;;28.60;18.73;;;2.60;99.90;;;;;;4954010;28;20030;-49
2023/12/08 02:36:20;;;;;;;34.30;17.48;;;2.50;99.90;;;;;;4952427;28;20061;-47
2023/12/08 02:38:51;;;;;;;24.63;16.65;;;2.50;99.90;;;;;;4970268;28;20031;-48
2023/12/08 02:41:17;;;;;;;32.08;17.25;;;2.40;99.90;;;;;;4969816;28;20069;-46
2023/12/08 02:43:42;;;;;;;25.38;16.90;;;2.40;99.90;;;;;;4952703;28;20062;-48
2023/12/08 02:46:07;;;;;;;28.02;17.73;;;2.50;99.90;;;;;;4952638;28;20164;-47
2023/12/08 02:48:33;;;;;;;28.13;17.15;;;2.50;99.90;;;;;;4970017;28;20030;-49
2023/12/08 02:50:58;;;;;;;22.80;15.85;;;2.60;99.90;;;;;;4969710;28;20030;-50
2023/12/08 02:53:24;;;;;;;25.33;16.33;;;2.60;99.90;;;;;;4970143;28;20031;-49
2023/12/08 02:55:49;;;;;;;26.63;17.02;;;2.60;99.90;;;;;;4970070;28;20109;-47
2023/12/08 02:58:15;;;;;;;29.73;17.80;;;2.60;99.90;;;;;;4969894;28;20080;-52
2023/12/08 03:00:40;;;;;;;28.83;17.25;;;2.50;99.90;;;;;;4969528;28;20046;-50
2023/12/08 03:03:06;;;;;;;31.50;17.08;;;2.50;99.90;;;;;;4965250;28;20429;-47
2023/12/08 03:05:32;;;;;;;25.58;16.83;;;2.40;99.90;;;;;;4949870;29;20059;-50
2023/12/08 03:07:57;;;;;;;28.60;16.70;;;2.40;99.90;;;;;;4950558;29;20390;-51
2023/12/08 03:10:23;;;;;;;23.83;15.82;;;2.50;99.90;;;;;;4933354;29;20027;-47
2023/12/08 03:12:48;;;;;;;26.95;16.48;;;2.60;99.90;;;;;;4950397;28;20080;-48
2023/12/08 03:15:14;;;;;;;27.52;16.52;;;2.60;99.90;;;;;;4950525;29;20042;-51
2023/12/08 03:17:39;;;;;;;26.08;17.52;;;2.70;99.90;;;;;;4950425;29;20062;-47
2023/12/08 03:20:05;;;;;;;27.02;17.05;;;2.70;99.90;;;;;;4950460;28;20031;-48
2023/12/08 03:22:31;;;;;;;25.92;17.10;;;2.70;99.90;;;;;;4950005;29;20028;-49
2023/12/08 03:24:56;;;;;;;26.90;17.15;;;2.80;99.90;;;;;;4950053;28;20110;-51
2023/12/08 03:27:22;;;;;;;26.58;15.90;;;2.70;99.90;;;;;;4950298;29;20027;-53
2023/12/08 03:29:47;;;;;;;28.23;18.15;;;2.60;99.90;;;;;;4933043;28;20612;-51
2023/12/08 03:32:13;;;;;;;27.90;16.88;;;2.60;99.90;;;;;;4950066;29;20038;-49
2023/12/08 03:34:38;;;;;;;25.30;16.02;;;2.60;99.90;;;;;;4950152;29;20031;-51
2023/12/08 03:37:04;;;;;;;26.75;17.48;;;2.60;99.90;;;;;;4950222;28;20039;-46
2023/12/08 03:39:29;;;;;;;26.58;17.25;;;2.50;99.90;;;;;;4950155;29;20487;-47
2023/12/08 03:41:55;;;;;;;26.30;16.27;;;2.50;99.90;;;;;;4949781;29;20423;-53
2023/12/08 03:44:20;;;;;;;24.98;16.05;;;2.60;99.90;;;;;;4949944;28;20041;-48
2023/12/08 03:46:46;;;;;;;25.50;17.05;;;2.60;99.90;;;;;;4950154;29;20403;-48
2023/12/08 03:49:11;;;;;;;24.67;15.88;;;2.70;99.90;;;;;;4950013;29;20110;-47
2023/12/08 03:51:37;;;;;;;27.23;17.23;;;2.70;99.90;;;;;;4949716;29;20047;-47
2023/12/08 03:54:02;;;;;;;22.67;15.50;;;2.70;99.90;;;;;;4950067;29;20050;-47
2023/12/08 03:56:28;;;;;;;26.60;16.63;;;2.70;99.90;;;;;;4980158;28;20033;-49
2023/12/08 03:58:53;;;;;;;27.75;17.27;;;2.70;99.90;;;;;;5050626;28;20480;-50
2023/12/08 04:01:19;;;;;;;28.58;16.63;;;2.60;99.90;;;;;;5050577;28;20079;-48
2023/12/08 04:03:46;;;;;;;25.45;15.43;;;2.60;99.90;;;;;;5051039;28;20025;-47
2023/12/08 04:06:11;;;;;;;25.98;16.35;;;2.60;99.90;;;;;;5050834;28;20021;-47
2023/12/08 04:08:37;;;;;;;26.80;16.77;;;2.50;99.90;;;;;;5050707;28;20021;-48
2023/12/08 04:11:03;;;;;;;28.45;17.13;;;2.60;99.90;;;;;;5032659;28;20017;-49
2023/12/08 04:13:28;;;;;;;28.92;17.55;;;2.60;99.90;;;;;;5031477;28;20021;-48
2023/12/08 04:15:54;;;;;;;27.67;17.55;;;2.60;99.90;;;;;;4949739;29;20043;-52
2023/12/08 04:18:19;;;;;;;27.45;17.73;;;2.80;99.90;;;;;;4951855;28;20499;-48
2023/12/08 04:20:45;;;;;;;27.13;17.08;;;2.70;99.90;;;;;;4952791;28;20522;-50
2023/12/08 04:23:10;;;;;;;27.58;16.90;;;2.70;99.90;;;;;;4952821;28;20024;-51
2023/12/08 04:25:36;;;;;;;26.35;17.23;;;2.70;99.90;;;;;;4952852;28;20085;-48
2023/12/08 04:28:03;;;;;;;26.13;16.33;;;2.70;99.90;;;;;;4953025;29;20031;-50
2023/12/08 04:30:28;;;;;;;27.92;16.52;;;2.70;99.90;;;;;;4936073;29;20169;-49
2023/12/08 04:32:54;;;;;;;30.05;17.35;;;2.60;99.90;;;;;;4953023;28;20102;-50
2023/12/08 04:35:19;;;;;;;30.88;17.58;;;2.70;99.90;;;;;;4953537;29;20038;-51
2023/12/08 04:37:45;;;;;;;29.23;16.73;;;2.80;99.90;;;;;;4953162;29;20024;-51
2023/12/08 04:40:11;;;;;;;27.38;17.67;;;2.80;99.90;;;;;;4952932;29;20024;-50
2023/12/08 04:42:36;;;;;;;28.17;16.35;;;2.80;99.90;;;;;;5034119;28;20025;-49
2023/12/08 04:45:03;;;;;;;23.55;16.40;;;2.80;99.90;;;;;;5036060;28;20021;-52
2023/12/08 04:47:28;;;;;;;29.45;16.10;;;2.80;99.90;;;;;;5036248;28;20025;-49
2023/12/08 04:49:54;;;;;;;25.60;16.77;;;2.80;99.90;;;;;;5053779;28;20373;-50
2023/12/08 04:52:20;;;;;;;27.13;16.60;;;2.70;99.90;;;;;;5053692;28;20044;-54
2023/12/08 04:54:45;;;;;;;26.60;17.77;;;2.60;99.90;;;;;;5053947;28;20075;-52
2023/12/08 04:57:11;;;;;;;26.85;16.33;;;2.60;99.90;;;;;;5036152;28;20104;-50
2023/12/08 04:59:38;;;;;;;26.40;17.63;;;2.60;99.90;;;;;;5035892;28;20033;-50
2023/12/08 05:02:03;;;;;;;33.58;18.23;;;2.60;99.90;;;;;;5053525;28;20017;-51
2023/12/08 05:04:29;;;;;;;26.40;17.40;;;2.70;99.90;;;;;;5008283;28;20398;-50
2023/12/08 05:06:54;;;;;;;25.30;16.35;;;2.70;99.90;;;;;;4953006;29;20080;-50
2023/12/08 05:09:20;;;;;;;26.70;17.30;;;2.70;99.90;;;;;;4953445;28;20051;-53
2023/12/08 05:11:46;;;;;;;27.42;17.30;;;2.70;99.90;;;;;;4952837;29;20532;-49
2023/12/08 05:14:11;;;;;;;29.48;16.15;;;2.80;99.90;;;;;;4952840;28;20487;-49
2023/12/08 05:16:37;;;;;;;36.13;17.85;;;2.90;99.90;;;;;;4952584;29;20031;-48
2023/12/08 05:19:02;;;;;;;28.67;17.45;;;2.90;99.90;;;;;;4952740;28;20126;-48
2023/12/08 05:21:28;;;;;;;26.75;17.48;;;3.00;99.90;;;;;;4952667;28;20027;-50
2023/12/08 05:23:54;;;;;;;29.63;17.45;;;3.10;99.90;;;;;;4953049;28;20395;-48
2023/12/08 05:26:20;;;;;;;30.08;18.15;;;3.10;99.90;;;;;;4952960;28;20165;-48
2023/12/08 05:28:45;;;;;;;26.52;18.08;;;3.10;99.90;;;;;;4953399;28;20026;-48
2023/12/08 05:31:11;;;;;;;35.42;19.83;;;3.00;99.90;;;;;;4954244;28;20027;-53
2023/12/08 05:33:36;;;;;;;32.22;18.77;;;2.80;99.90;;;;;;4953157;29;20019;-48
2023/12/08 05:36:02;;;;;;;31.55;19.30;;;2.80;99.90;;;;;;4952422;28;20051;-47
2023/12/08 05:38:28;;;;;;;36.92;18.27;;;2.80;99.90;;;;;;4952479;29;20462;-53
2023/12/08 05:40:53;;;;;;;30.50;16.77;;;2.80;99.90;;;;;;4952069;29;20111;-50
2023/12/08 05:43:19;;;;;;;33.75;17.58;;;2.70;99.90;;;;;;4952170;29;20039;-48
2023/12/08 05:45:44;;;;;;;33.25;18.42;;;2.70;99.90;;;;;;4935171;29;20034;-51
2023/12/08 05:48:10;;;;;;;27.98;18.33;;;2.80;99.90;;;;;;4951861;28;20505;-49
2023/12/08 05:50:35;;;;;;;29.45;18.60;;;2.80;99.90;;;;;;4951750;28;20479;-52
2023/12/08 05:53:01;;;;;;;29.50;18.95;;;2.80;99.90;;;;;;4951796;28;20114;-49
2023/12/08 05:55:27;;;;;;;29.50;18.13;;;2.80;99.90;;;;;;4952075;28;20070;-50
2023/12/08 05:57:52;;;;;;;31.90;20.65;;;2.90;99.90;;;;;;4952357;28;20452;-47
2023/12/08 06:00:20;;;;;;;32.22;16.75;;;2.80;99.90;;;;;;4955044;28;20031;-56
2023/12/08 06:02:45;;;;;;;31.55;18.60;;;2.90;99.90;;;;;;4955571;28;20390;-54
2023/12/08 06:05:12;;;;;;;29.83;18.92;;;2.90;99.90;;;;;;4955448;29;20073;-57
2023/12/08 06:07:38;;;;;;;26.80;17.35;;;3.00;99.90;;;;;;4954976;28;20030;-57
2023/12/08 06:10:05;;;;;;;30.17;16.52;;;2.90;99.90;;;;;;4952247;29;20023;-51
2023/12/08 06:12:30;;;;;;;27.85;16.08;;;2.90;99.90;;;;;;4951591;29;20071;-51
2023/12/08 06:14:59;;;;;;;27.95;17.17;;;2.90;99.90;;;;;;4951910;28;20055;-52
2023/12/08 06:17:26;;;;;;;27.52;17.48;;;3.00;99.90;;;;;;4952092;28;20150;-51
2023/12/08 06:19:51;;;;;;;28.65;17.15;;;2.90;99.90;;;;;;4951621;29;20023;-51
2023/12/08 06:22:17;;;;;;;25.10;16.63;;;3.00;99.90;;;;;;4952041;29;20364;-51
2023/12/08 06:24:42;;;;;;;28.65;18.02;;;3.00;99.90;;;;;;4951436;29;20391;-49
2023/12/08 06:27:08;;;;;;;28.08;17.13;;;3.00;99.90;;;;;;4952441;29;20081;-48
2023/12/08 06:29:33;;;;;;;29.15;19.52;;;2.90;99.90;;;;;;4951600;29;20027;-52
2023/12/08 06:31:58;;;;;;;26.60;17.48;;;2.90;99.90;;;;;;4995483;28;20124;-48
2023/12/08 06:34:24;;;;;;;28.48;17.33;;;2.80;99.90;;;;;;5052311;28;20058;-50
2023/12/08 06:36:49;;;;;;;27.15;15.85;;;2.80;99.90;;;;;;5052498;28;20037;-48
2023/12/08 06:39:18;;;;;;;23.75;16.52;;;2.70;99.90;;;;;;5052057;28;20061;-54
2023/12/08 06:41:44;;;;;;;27.40;17.52;;;2.60;99.90;;;;;;5051718;28;20025;-48
2023/12/08 06:44:09;;;;;;;28.05;17.25;;;2.60;99.90;;;;;;5016398;28;20081;-51
2023/12/08 06:46:35;;;;;;;31.92;18.27;;;2.60;99.90;;;;;;4934365;28;20069;-50
2023/12/08 06:49:01;;;;;;;28.13;18.35;;;2.50;99.90;;;;;;4951395;28;20110;-49
2023/12/08 06:51:27;;;;;;;27.20;17.92;;;2.40;99.90;;;;;;4951316;28;20031;-48
2023/12/08 06:53:53;;;;;;;33.30;19.27;;;2.40;99.90;;;;;;4951335;29;20132;-47
2023/12/08 06:56:18;;;;;;;36.13;20.02;;;2.40;99.90;;;;;;4951742;28;20061;-51
2023/12/08 06:58:44;;;;;;;31.42;19.25;;;2.40;99.90;;;;;;4951541;28;20031;-50
2023/12/08 07:01:10;;;;;;;30.95;18.77;;;2.30;99.90;;;;;;4951715;28;20478;-48
2023/12/08 07:03:35;;;;;;;28.05;17.58;;;2.20;99.90;;;;;;4966211;28;20027;-48
2023/12/08 07:06:01;;;;;;;33.20;18.58;;;2.10;99.90;;;;;;4983640;28;20073;-48
2023/12/08 07:08:26;;;;;;;27.45;18.17;;;2.10;99.90;;;;;;4950768;29;20055;-47
2023/12/08 07:10:52;;;;;;;31.08;18.02;;;2.10;99.90;;;;;;4950721;28;20028;-47
2023/12/08 07:13:17;;;;;;;35.58;19.02;;;2.20;99.90;;;;;;4950896;29;20034;-48
2023/12/08 07:15:43;;;;;;;33.60;18.63;;;2.30;99.90;;;;;;4950823;28;20407;-47
2023/12/08 07:18:08;;;;;;;33.38;17.45;;;2.30;99.90;;;;;;4950747;28;20417;-47
2023/12/08 07:20:34;;;;;;;29.63;17.38;;;2.30;99.90;;;;;;4933854;29;20106;-55
2023/12/08 07:22:59;;;;;;;31.48;16.63;;;2.30;99.90;;;;;;4953622;28;20070;-48
2023/12/08 07:25:25;;;;;;;31.30;17.55;;;2.30;99.90;;;;;;4970004;28;20402;-51
2023/12/08 07:27:51;;;;;;;37.97;18.58;;;2.30;99.90;;;;;;4970297;28;20087;-51
2023/12/08 07:30:17;;;;;;;26.95;17.70;;;2.30;99.90;;;;;;4961772;28;20157;-46
2023/12/08 07:32:42;;;;;;;38.05;19.08;;;2.10;99.90;;;;;;4933329;29;20066;-50
2023/12/08 07:35:08;;;;;;;29.73;18.20;;;2.00;99.90;;;;;;4966038;28;20522;-50
2023/12/08 07:37:38;;;;;;;31.50;18.23;;;2.00;99.90;;;;;;4969944;28;20568;-51
2023/12/08 07:40:05;;;;;;;35.25;18.35;;;2.00;99.90;;;;;;4969594;28;20026;-50
2023/12/08 07:42:30;;;;;;;35.65;19.55;;;2.00;99.90;;;;;;4970181;28;20023;-50
2023/12/08 07:44:56;;;;;;;38.33;20.50;;;1.90;99.90;;;;;;4970249;28;20034;-49
2023/12/08 07:47:21;;;;;;;37.08;22.33;;;1.90;99.90;;;;;;4970316;28;20112;-51
2023/12/08 07:49:47;;;;;;;32.92;19.60;;;2.00;99.90;;;;;;4970208;28;20031;-47
2023/12/08 07:52:14;;;;;;;36.28;21.33;;;2.00;99.90;;;;;;4952920;28;20027;-50
2023/12/08 07:54:39;;;;;;;33.53;19.73;;;2.00;99.90;;;;;;4973617;28;20062;-50
2023/12/08 07:57:05;;;;;;;35.63;20.35;;;2.10;99.90;;;;;;4956037;28;20066;-47
2023/12/08 07:59:30;;;;;;;39.80;21.08;;;2.20;99.90;;;;;;4955391;28;20042;-49
2023/12/08 08:01:56;;;;;;;39.75;22.33;;;2.30;99.90;;;;;;4973444;28;20443;-48
2023/12/08 08:04:22;;;;;;;32.10;19.70;;;2.30;99.90;;;;;;4973246;28;20098;-46
2023/12/08 08:06:47;;;;;;;37.65;20.25;;;2.30;99.90;;;;;;4975058;28;20023;-51
2023/12/08 08:09:13;;;;;;;34.55;19.17;;;2.40;99.90;;;;;;4958588;28;20058;-55
2023/12/08 08:11:38;;;;;;;33.20;20.20;;;2.60;99.90;;;;;;4937012;29;20122;-52
2023/12/08 08:14:04;;;;;;;31.90;19.00;;;2.70;99.90;;;;;;4958770;28;20024;-51
2023/12/08 08:16:30;;;;;;;32.45;19.70;;;2.80;99.90;;;;;;4970174;28;20451;-48
2023/12/08 08:18:55;;;;;;;30.60;19.30;;;2.90;99.90;;;;;;4969685;28;20054;-55
2023/12/08 08:21:21;;;;;;;27.13;18.33;;;3.00;99.90;;;;;;4953583;28;20026;-52
2023/12/08 08:23:46;;;;;;;35.45;19.40;;;3.00;99.90;;;;;;4953625;29;20027;-48
2023/12/08 08:26:12;;;;;;;45.13;22.95;;;3.10;99.90;;;;;;4936338;29;20028;-48
2023/12/08 08:28:37;;;;;;;30.45;18.38;;;3.10;99.90;;;;;;4953598;29;20096;-50
2023/12/08 08:31:03;;;;;;;32.05;19.88;;;3.20;99.90;;;;;;4959723;28;20132;-49
2023/12/08 08:33:28;;;;;;;31.98;20.13;;;3.10;99.90;;;;;;4972247;28;20033;-52
2023/12/08 08:35:54;;;;;;;35.25;20.95;;;3.00;99.90;;;;;;4972490;28;20035;-50
2023/12/08 08:38:19;;;;;;;34.20;20.52;;;2.90;99.90;;;;;;4969970;28;20045;-52
2023/12/08 08:40:45;;;;;;;35.42;21.02;;;2.90;99.90;;;;;;4937021;29;20023;-49
2023/12/08 08:43:11;;;;;;;44.65;22.33;;;2.80;99.90;;;;;;4953130;29;20034;-48
2023/12/08 08:45:36;;;;;;;35.65;21.80;;;2.80;99.90;;;;;;4955461;28;20024;-44
2023/12/08 08:48:03;;;;;;;35.22;20.92;;;2.70;99.90;;;;;;4968569;28;20379;-49
2023/12/08 08:50:28;;;;;;;34.17;20.30;;;2.70;99.90;;;;;;4972572;28;20031;-52
2023/12/08 08:52:54;;;;;;;32.80;20.33;;;2.70;99.90;;;;;;4954634;28;20019;-50
2023/12/08 08:55:19;;;;;;;32.75;20.55;;;2.80;99.90;;;;;;4939338;28;20039;-47
2023/12/08 08:57:46;;;;;;;32.97;20.15;;;2.80;99.90;;;;;;4972166;28;20125;-52
2023/12/08 09:00:13;;;;;;;32.95;20.15;;;2.90;99.90;;;;;;4972111;28;20196;-52
2023/12/08 09:02:40;;;;;;;30.08;19.30;;;2.90;99.90;;;;;;4971779;28;20027;-51
2023/12/08 09:05:06;;;;;;;34.53;21.35;;;2.90;99.90;;;;;;4970783;28;20042;-49
2023/12/08 09:07:32;;;;;;;36.88;19.88;;;3.00;99.90;;;;;;4971734;28;20034;-51
2023/12/08 09:09:58;;;;;;;33.17;20.10;;;3.00;99.90;;;;;;4971887;28;20031;-51
2023/12/08 09:12:23;;;;;;;27.63;18.13;;;3.20;99.90;;;;;;4971580;28;20030;-49
2023/12/08 09:14:49;;;;;;;30.27;20.20;;;3.20;99.90;;;;;;4971656;28;20042;-51
2023/12/08 09:17:14;;;;;;;31.75;18.75;;;3.20;99.90;;;;;;4971812;28;20168;-52
2023/12/08 09:19:40;;;;;;;29.35;18.52;;;3.30;99.90;;;;;;4971646;28;20076;-48
2023/12/08 09:22:06;;;;;;;31.27;19.50;;;3.30;99.90;;;;;;4971216;28;20112;-51
2023/12/08 09:24:31;;;;;;;36.50;19.63;;;3.40;99.90;;;;;;4954276;28;20434;-49
2023/12/08 09:26:57;;;;;;;32.80;20.83;;;3.40;99.90;;;;;;4954551;28;20161;-49
2023/12/08 09:29:22;;;;;;;32.95;19.27;;;3.40;99.90;;;;;;4971919;28;20557;-47
2023/12/08 09:31:48;;;;;;;35.78;20.98;;;3.30;99.90;;;;;;4971250;28;20591;-50
2023/12/08 09:34:14;;;;;;;34.55;18.95;;;3.30;99.90;;;;;;4971414;28;20482;-47
2023/12/08 09:36:40;;;;;;;27.90;18.55;;;3.30;99.90;;;;;;4971306;28;20027;-49
2023/12/08 09:39:05;;;;;;;30.52;19.25;;;3.30;99.90;;;;;;4971821;28;20513;-49
2023/12/08 09:41:31;;;;;;;34.85;20.23;;;3.20;99.90;;;;;;4971476;28;20535;-50
2023/12/08 09:44:09;;;;;;;29.75;18.98;;;3.10;99.90;;;;;;4971645;28;20390;-50
2023/12/08 09:46:36;;;;;;;34.22;19.08;;;3.10;99.90;;;;;;4971770;28;20054;-48
2023/12/08 09:49:06;;;;;;;36.08;19.20;;;3.10;99.90;;;;;;4971560;28;20038;-47
2023/12/08 09:51:32;;;;;;;33.50;19.20;;;3.10;99.90;;;;;;4971020;28;20027;-52
2023/12/08 09:53:58;;;;;;;33.22;18.50;;;3.20;99.90;;;;;;4971184;28;20534;-47
2023/12/08 09:56:25;;;;;;;35.92;19.98;;;3.20;99.90;;;;;;4971188;28;20027;-49
2023/12/08 09:58:51;;;;;;;31.67;19.67;;;3.20;99.90;;;;;;4953735;28;20455;-47
2023/12/08 10:01:16;;;;;;;40.38;20.75;;;3.30;99.90;;;;;;4971304;28;20532;-49
2023/12/08 10:03:43;;;;;;;44.72;21.20;;;3.30;99.90;;;;;;4971420;28;20027;-52
2023/12/08 10:06:09;;;;;;;36.78;21.20;;;3.40;99.90;;;;;;4971201;28;20080;-50
2023/12/08 10:08:36;;;;;;;37.05;20.38;;;3.40;99.90;;;;;;4971099;28;20038;-47
2023/12/08 10:11:02;;;;;;;34.83;21.67;;;3.40;99.90;;;;;;4953248;28;20027;-47
2023/12/08 10:13:28;;;;;;;33.17;20.55;;;3.40;99.90;;;;;;4953183;28;20038;-47
2023/12/08 10:15:55;;;;;;;35.60;20.73;;;3.40;99.90;;;;;;4970099;28;20022;-46
2023/12/08 10:18:25;;;;;;;35.60;21.23;;;3.40;99.90;;;;;;4982499;28;20038;-51
2023/12/08 10:20:50;;;;;;;35.35;20.67;;;3.40;99.90;;;;;;4989919;28;20061;-49
2023/12/08 10:23:23;;;;;;;37.05;21.48;;;3.40;99.90;;;;;;4989199;28;20057;-47
2023/12/08 10:25:49;;;;;;;35.38;21.42;;;3.40;99.90;;;;;;4989860;28;20058;-47
2023/12/08 10:28:14;;;;;;;37.78;22.15;;;3.40;99.90;;;;;;4990010;28;20078;-50
2023/12/08 10:30:51;;;;;;;35.45;22.63;;;3.50;99.90;;;;;;4989565;28;20454;-47
2023/12/08 10:33:19;;;;;;;37.05;21.58;;;3.50;99.90;;;;;;4989922;28;20055;-50
2023/12/08 10:35:45;;;;;;;35.70;20.23;;;3.60;99.90;;;;;;4989952;28;20066;-48
2023/12/08 10:38:11;;;;;;;31.48;18.67;;;3.60;99.90;;;;;;4989898;28;20026;-46
2023/12/08 10:40:44;;;;;;;31.88;20.83;;;3.70;99.90;;;;;;4958127;28;20081;-48
2023/12/08 10:43:10;;;;;;;36.13;20.88;;;3.70;99.90;;;;;;4955724;28;20027;-51
2023/12/08 10:45:36;;;;;;;33.45;20.13;;;3.80;99.90;;;;;;4944242;28;20097;-52
2023/12/08 10:48:03;;;;;;;36.42;19.50;;;3.80;99.90;;;;;;4957681;28;20110;-46
2023/12/08 10:50:29;;;;;;;27.70;19.17;;;3.80;99.90;;;;;;4934085;28;20042;-50
2023/12/08 10:52:56;;;;;;;32.65;19.27;;;3.80;99.90;;;;;;4969923;28;20461;-46
2023/12/08 10:55:21;;;;;;;35.20;20.45;;;3.80;99.90;;;;;;4970112;28;20068;-49
2023/12/08 10:57:52;;;;;;;33.92;19.65;;;3.80;99.90;;;;;;4965869;28;20035;-51
2023/12/08 11:00:19;;;;;;;29.50;19.35;;;3.80;99.90;;;;;;4960198;28;20046;-49
2023/12/08 11:02:50;;;;;;;34.72;19.90;;;3.90;99.90;;;;;;4954806;28;20057;-49
2023/12/08 11:05:25;;;;;;;30.20;19.45;;;3.90;99.90;;;;;;4958417;28;20034;-48
2023/12/08 11:07:53;;;;;;;31.60;21.30;;;4.00;99.90;;;;;;4951223;28;20406;-47
2023/12/08 11:10:19;;;;;;;35.90;19.88;;;4.00;99.90;;;;;;4950842;28;20034;-48
2023/12/08 11:13:11;;;;;;;36.47;20.45;;;4.10;99.90;;;;;;4954609;28;20027;-53
2023/12/08 11:15:41;;;;;;;33.42;19.60;;;4.20;99.90;;;;;;4953810;28;20043;-50
2023/12/08 11:18:16;;;;;;;34.92;19.08;;;4.20;99.90;;;;;;4954719;28;20035;-48
2023/12/08 11:20:43;;;;;;;37.47;20.25;;;4.20;99.90;;;;;;4954456;28;20446;-50
2023/12/08 11:23:10;;;;;;;34.65;20.38;;;4.20;99.90;;;;;;4969210;28;20058;-49
2023/12/08 11:25:43;;;;;;;33.92;20.55;;;4.30;99.90;;;;;;4960797;28;20028;-48
2023/12/08 11:28:22;;;;;;;37.85;21.30;;;4.20;99.90;;;;;;4949807;28;20031;-49
2023/12/08 11:31:01;;;;;;;38.58;19.98;;;4.20;99.90;;;;;;5010416;28;20024;-53
2023/12/08 11:33:46;;;;;;;46.95;22.42;;;4.20;99.90;;;;;;5052895;28;20037;-49
2023/12/08 11:36:18;;;;;;;42.25;22.52;;;4.30;99.90;;;;;;4962500;28;20037;-48
2023/12/08 11:38:43;;;;;;;49.17;22.17;;;4.10;99.90;;;;;;5010801;28;20031;-50
2023/12/08 11:41:13;;;;;;;111.90;63.50;;;4.00;99.90;;;;;;4973321;28;20035;-49
2023/12/08 11:43:42;;;;;;;72.50;37.78;;;3.80;99.90;;;;;;4959174;28;20301;-49
2023/12/08 11:46:07;;;;;;;45.20;22.95;;;3.80;99.90;;;;;;4954287;29;20023;-54
2023/12/08 11:48:34;;;;;;;54.13;23.73;;;3.90;99.90;;;;;;4957434;28;20038;-51
2023/12/08 11:51:03;;;;;;;51.95;24.50;;;3.90;99.90;;;;;;4956928;28;20068;-49
2023/12/08 11:53:47;;;;;;;47.05;25.77;;;4.00;99.90;;;;;;4964465;28;20139;-53
2023/12/08 11:56:36;;;;;;;52.13;25.90;;;3.90;99.90;;;;;;4957472;28;20028;-51
2023/12/08 11:59:01;;;;;;;44.42;24.10;;;3.90;99.90;;;;;;4972104;28;20027;-52
2023/12/08 12:01:29;;;;;;;48.65;24.88;;;3.90;99.90;;;;;;4971708;28;20031;-49
2023/12/08 12:03:55;;;;;;;61.88;25.20;;;3.90;99.90;;;;;;4954009;28;20072;-50
2023/12/08 12:06:20;;;;;;;51.72;26.67;;;3.90;99.90;;;;;;4972415;28;20413;-49
2023/12/08 12:08:46;;;;;;;52.75;25.92;;;3.90;99.90;;;;;;4969667;28;20030;-56
2023/12/08 12:11:14;;;;;;;64.22;28.75;;;3.90;99.90;;;;;;4962854;28;20050;-53
2023/12/08 12:13:42;;;;;;;54.00;27.40;;;4.00;99.90;;;;;;4936078;28;20457;-53
2023/12/08 12:16:09;;;;;;;59.42;26.77;;;3.90;99.90;;;;;;4953516;28;20031;-53
2023/12/08 12:18:35;;;;;;;53.35;26.75;;;3.90;99.90;;;;;;4953270;28;20028;-56
2023/12/08 12:21:00;;;;;;;52.08;28.05;;;3.90;99.90;;;;;;4960458;28;20479;-51
2023/12/08 12:23:26;;;;;;;49.55;25.63;;;3.80;99.90;;;;;;5009489;28;20110;-52
2023/12/08 12:25:51;;;;;;;46.72;25.42;;;3.80;99.90;;;;;;4954124;28;20031;-51
2023/12/08 12:28:17;;;;;;;50.80;27.50;;;3.70;99.90;;;;;;4954383;28;20106;-47
2023/12/08 12:30:48;;;;;;;47.25;26.52;;;3.70;99.90;;;;;;4935766;28;20034;-49